Frenchboro, Maine
Current Conditions -  °F | °C
As of 5:35 AM on Monday 26 Jan 2015 (Local Time) from KBHB Reporting Station
Clear Clear  
Wind Chill:   Ceiling: Unl
Heat Index:   Visibility: 10mi
Dew Point: -2°   Wind: 3mph
Humidity: 78%   Direction: 360°N
Pressure: 30.13"   Gusts: NA
Location:  44.12°N, 68.36°W
Report Text: KBHB 261035Z 36003KT 10SM CLR M16/M19 A3013 RMK AO1
Loading
Personal Weather Stations






























Interactive Weather Map New forecast layout! Learn more

10-Day Weather Forecast

Advertisements
Track Severe Weather on mobile